OAL063 SGAS-SLPO
Flight info
| Callsign | OAL063 |
|---|---|
| Flight time | 1h 30m |
| Altitude | 32000 |
| Route | SUSRU UM548 DAKRO |
| Aircraft | A320/M-SDE3FGHIRWY/LB1 |
Departure
| Time | 2026-05-05 11:43 |
|---|---|
| Airport | Silvio Pettirossi International Airport (SGAS) |
Arrival
| Time | 2026-05-05 13:13 |
|---|---|
| Airport | Capitan Nicolas Rojas Airport (SLPO) |
| Time | Latitude | Longitude | Altitude | Speed | Heading |
|---|---|---|---|---|---|
| 2026-05-05 09:40 | -25.24128 | -57.51489 | 279 ft | 0 kts | 136° |
| 2026-05-05 11:37 | -25.24120 | -57.51496 | 279 ft | 4 kts | 118° |
| 2026-05-05 11:38 | -25.24106 | -57.51510 | 283 ft | 4 kts | 142° |
| 2026-05-05 11:38 | -25.24086 | -57.51530 | 283 ft | 4 kts | 132° |
| 2026-05-05 11:38 | -25.24069 | -57.51553 | 283 ft | 4 kts | 123° |
| 2026-05-05 11:38 | -25.24064 | -57.51561 | 280 ft | 0 kts | 123° |
| 2026-05-05 11:40 | -25.24065 | -57.51560 | 280 ft | 1 kts | 126° |
| 2026-05-05 11:40 | -25.24079 | -57.51569 | 279 ft | 4 kts | 223° |
| 2026-05-05 11:40 | -25.24108 | -57.51598 | 279 ft | 8 kts | 222° |
| 2026-05-05 11:41 | -25.24173 | -57.51623 | 280 ft | 12 kts | 191° |
| 2026-05-05 11:41 | -25.24263 | -57.51639 | 281 ft | 14 kts | 190° |
| 2026-05-05 11:41 | -25.24300 | -57.51723 | 284 ft | 15 kts | 281° |
| 2026-05-05 11:41 | -25.24282 | -57.51824 | 282 ft | 12 kts | 281° |
| 2026-05-05 11:42 | -25.24268 | -57.51909 | 284 ft | 11 kts | 281° |
| 2026-05-05 11:42 | -25.24240 | -57.51976 | 284 ft | 9 kts | 352° |
| 2026-05-05 11:42 | -25.24058 | -57.51926 | 281 ft | 65 kts | 14° |
| 2026-05-05 11:42 | -25.23339 | -57.51754 | 268 ft | 142 kts | 12° |
| 2026-05-05 11:43 | -25.22212 | -57.51492 | 528 ft | 178 kts | 14° |
| 2026-05-05 11:43 | -25.20972 | -57.51197 | 1281 ft | 181 kts | 12° |
| 2026-05-05 11:43 | -25.19743 | -57.50897 | 1957 ft | 187 kts | 11° |
| 2026-05-05 11:43 | -25.18392 | -57.50569 | 2284 ft | 210 kts | 11° |
| 2026-05-05 11:44 | -25.16884 | -57.50203 | 2602 ft | 234 kts | 11° |
| 2026-05-05 11:44 | -25.15244 | -57.49804 | 3244 ft | 246 kts | 11° |
| 2026-05-05 11:44 | -25.13560 | -57.49393 | 4132 ft | 249 kts | 11° |
| 2026-05-05 11:44 | -25.11860 | -57.48977 | 5009 ft | 252 kts | 11° |
| 2026-05-05 11:45 | -25.10143 | -57.48557 | 5886 ft | 254 kts | 11° |
| 2026-05-05 11:45 | -25.08390 | -57.48303 | 6722 ft | 256 kts | 355° |
| 2026-05-05 11:45 | -25.06689 | -57.48890 | 7460 ft | 262 kts | 329° |
| 2026-05-05 11:45 | -25.05406 | -57.50337 | 8176 ft | 272 kts | 302° |
| 2026-05-05 11:46 | -25.04708 | -57.52315 | 8920 ft | 279 kts | 292° |
| 2026-05-05 11:46 | -25.04095 | -57.54359 | 9656 ft | 283 kts | 292° |
| 2026-05-05 11:46 | -25.03481 | -57.56432 | 10326 ft | 286 kts | 291° |
| 2026-05-05 11:46 | -25.02851 | -57.58557 | 10714 ft | 301 kts | 291° |
| 2026-05-05 11:47 | -25.02168 | -57.60830 | 10830 ft | 323 kts | 291° |
| 2026-05-05 11:47 | -25.01435 | -57.63255 | 10952 ft | 343 kts | 291° |
| 2026-05-05 11:47 | -25.00919 | -57.64964 | 11125 ft | 352 kts | 291° |
| 2026-05-05 11:47 | -25.00138 | -57.67547 | 11604 ft | 358 kts | 290° |
| 2026-05-05 11:48 | -24.98552 | -57.72793 | 12685 ft | 364 kts | 290° |
| 2026-05-05 11:48 | -24.97749 | -57.75447 | 13224 ft | 367 kts | 290° |
| 2026-05-05 11:48 | -24.96938 | -57.78125 | 13750 ft | 370 kts | 290° |
| 2026-05-05 11:49 | -24.96120 | -57.80823 | 14218 ft | 372 kts | 290° |
| 2026-05-05 11:49 | -24.95297 | -57.83540 | 14694 ft | 375 kts | 289° |
| 2026-05-05 11:49 | -24.94470 | -57.86269 | 15197 ft | 377 kts | 289° |
| 2026-05-05 11:49 | -24.93637 | -57.89014 | 15708 ft | 379 kts | 289° |
| 2026-05-05 11:50 | -24.92797 | -57.91775 | 16219 ft | 381 kts | 289° |
| 2026-05-05 11:50 | -24.91949 | -57.94550 | 16737 ft | 384 kts | 289° |
| 2026-05-05 11:50 | -24.91095 | -57.97346 | 17269 ft | 386 kts | 289° |
| 2026-05-05 11:50 | -24.90234 | -58.00158 | 17797 ft | 389 kts | 289° |
| 2026-05-05 11:51 | -24.89364 | -58.02989 | 18329 ft | 391 kts | 289° |
| 2026-05-05 11:51 | -24.88489 | -58.05837 | 18812 ft | 394 kts | 288° |
| 2026-05-05 11:51 | -24.87598 | -58.08744 | 19300 ft | 397 kts | 288° |
| 2026-05-05 11:51 | -24.86727 | -58.11592 | 19773 ft | 399 kts | 288° |
| 2026-05-05 11:52 | -24.85830 | -58.14529 | 20256 ft | 401 kts | 288° |
| 2026-05-05 11:52 | -24.84936 | -58.17453 | 20717 ft | 404 kts | 288° |
| 2026-05-05 11:52 | -24.84036 | -58.20386 | 21170 ft | 406 kts | 288° |
| 2026-05-05 11:52 | -24.83127 | -58.23341 | 21605 ft | 408 kts | 288° |
| 2026-05-05 11:53 | -24.82206 | -58.26310 | 22027 ft | 411 kts | 288° |
| 2026-05-05 11:53 | -24.81067 | -58.29199 | 22423 ft | 414 kts | 298° |
| 2026-05-05 11:53 | -24.79445 | -58.31833 | 22829 ft | 418 kts | 308° |
| 2026-05-05 11:53 | -24.77407 | -58.34135 | 23212 ft | 422 kts | 314° |
| 2026-05-05 11:54 | -24.75265 | -58.36362 | 23577 ft | 425 kts | 314° |
| 2026-05-05 11:54 | -24.73118 | -58.38602 | 23888 ft | 427 kts | 314° |
| 2026-05-05 11:54 | -24.70961 | -58.40859 | 24205 ft | 428 kts | 314° |
| 2026-05-05 11:54 | -24.68806 | -58.43120 | 24523 ft | 430 kts | 314° |
| 2026-05-05 11:55 | -24.66635 | -58.45399 | 24835 ft | 432 kts | 314° |
| 2026-05-05 11:55 | -24.64460 | -58.47680 | 25136 ft | 433 kts | 314° |
| 2026-05-05 11:55 | -24.62273 | -58.49968 | 25442 ft | 435 kts | 314° |
| 2026-05-05 11:55 | -24.60072 | -58.52266 | 25766 ft | 437 kts | 314° |
| 2026-05-05 11:56 | -24.57869 | -58.54566 | 26074 ft | 438 kts | 314° |
| 2026-05-05 11:56 | -24.55655 | -58.56875 | 26388 ft | 440 kts | 314° |
| 2026-05-05 11:56 | -24.53428 | -58.59197 | 26697 ft | 442 kts | 314° |
| 2026-05-05 11:56 | -24.51203 | -58.61515 | 27092 ft | 441 kts | 314° |
| 2026-05-05 11:57 | -24.48980 | -58.63830 | 27563 ft | 439 kts | 313° |
| 2026-05-05 11:57 | -24.46766 | -58.66136 | 28036 ft | 438 kts | 313° |
| 2026-05-05 11:57 | -24.44561 | -58.68430 | 28515 ft | 436 kts | 313° |
| 2026-05-05 11:57 | -24.42361 | -58.70715 | 28988 ft | 435 kts | 313° |
| 2026-05-05 11:58 | -24.40169 | -58.72991 | 29462 ft | 433 kts | 313° |
| 2026-05-05 11:58 | -24.37983 | -58.75263 | 29940 ft | 432 kts | 313° |
| 2026-05-05 11:58 | -24.35807 | -58.77522 | 30360 ft | 431 kts | 313° |
| 2026-05-05 11:58 | -24.33632 | -58.79780 | 30743 ft | 430 kts | 312° |
| 2026-05-05 11:59 | -24.31462 | -58.82033 | 31123 ft | 430 kts | 312° |
| 2026-05-05 11:59 | -24.29288 | -58.84291 | 31502 ft | 429 kts | 311° |
| 2026-05-05 11:59 | -24.27095 | -58.86568 | 31870 ft | 430 kts | 311° |
| 2026-05-05 11:59 | -24.24948 | -58.88791 | 31989 ft | 431 kts | 311° |
| 2026-05-05 12:00 | -24.20476 | -58.93414 | 32007 ft | 445 kts | 311° |
| 2026-05-05 12:00 | -24.15978 | -58.98100 | 32006 ft | 446 kts | 311° |
| 2026-05-05 12:01 | -24.11534 | -59.02841 | 32004 ft | 446 kts | 310° |
| 2026-05-05 12:01 | -24.07093 | -59.07590 | 32004 ft | 447 kts | 310° |
| 2026-05-05 12:02 | -24.02624 | -59.12325 | 32001 ft | 447 kts | 311° |
| 2026-05-05 12:02 | -23.98150 | -59.17043 | 31996 ft | 447 kts | 311° |
| 2026-05-05 12:03 | -23.93675 | -59.21762 | 31991 ft | 447 kts | 311° |
| 2026-05-05 12:03 | -23.89204 | -59.26480 | 31992 ft | 447 kts | 311° |
| 2026-05-05 12:04 | -23.84736 | -59.31201 | 31984 ft | 447 kts | 311° |
| 2026-05-05 12:04 | -23.80263 | -59.35916 | 31986 ft | 447 kts | 311° |
| 2026-05-05 12:05 | -23.76168 | -59.40223 | 31988 ft | 447 kts | 311° |
| 2026-05-05 12:05 | -23.71687 | -59.44932 | 31986 ft | 447 kts | 311° |
| 2026-05-05 12:06 | -23.67201 | -59.49651 | 31983 ft | 448 kts | 311° |
| 2026-05-05 12:06 | -23.62710 | -59.54364 | 31989 ft | 448 kts | 311° |
| 2026-05-05 12:07 | -23.58188 | -59.59107 | 31991 ft | 448 kts | 311° |
| 2026-05-05 12:07 | -23.53685 | -59.63816 | 31989 ft | 449 kts | 311° |
| 2026-05-05 12:08 | -23.49184 | -59.68522 | 31991 ft | 448 kts | 311° |
| 2026-05-05 12:08 | -23.44682 | -59.73228 | 31991 ft | 448 kts | 311° |
| 2026-05-05 12:09 | -23.40181 | -59.77927 | 31987 ft | 449 kts | 311° |
| 2026-05-05 12:09 | -23.35671 | -59.82626 | 31984 ft | 449 kts | 311° |
| 2026-05-05 12:10 | -23.31164 | -59.87320 | 31984 ft | 449 kts | 311° |
| 2026-05-05 12:10 | -23.26648 | -59.92015 | 31979 ft | 449 kts | 311° |
| 2026-05-05 12:11 | -23.22134 | -59.96708 | 31980 ft | 449 kts | 311° |
| 2026-05-05 12:11 | -23.17619 | -60.01406 | 31978 ft | 449 kts | 312° |
| 2026-05-05 12:12 | -23.13097 | -60.06097 | 31980 ft | 449 kts | 312° |
| 2026-05-05 12:12 | -23.08574 | -60.10782 | 31979 ft | 450 kts | 312° |
| 2026-05-05 12:13 | -23.04042 | -60.15475 | 31977 ft | 450 kts | 312° |
| 2026-05-05 12:13 | -22.99482 | -60.20194 | 31978 ft | 450 kts | 312° |
| 2026-05-05 12:14 | -22.95432 | -60.25280 | 31968 ft | 442 kts | 298° |
| 2026-05-05 12:14 | -22.92173 | -60.30938 | 31968 ft | 443 kts | 298° |
| 2026-05-05 12:15 | -22.88899 | -60.36597 | 31966 ft | 443 kts | 298° |
| 2026-05-05 12:15 | -22.85612 | -60.42250 | 31964 ft | 443 kts | 298° |
| 2026-05-05 12:16 | -22.82323 | -60.47903 | 31956 ft | 444 kts | 298° |
| 2026-05-05 12:16 | -22.79027 | -60.53559 | 31960 ft | 444 kts | 299° |
| 2026-05-05 12:17 | -22.75728 | -60.59217 | 31960 ft | 444 kts | 298° |
| 2026-05-05 12:17 | -22.72432 | -60.64877 | 31959 ft | 444 kts | 298° |
| 2026-05-05 12:18 | -22.69130 | -60.70548 | 31955 ft | 445 kts | 299° |
| 2026-05-05 12:18 | -22.65825 | -60.76210 | 31955 ft | 445 kts | 299° |
| 2026-05-05 12:19 | -22.62507 | -60.81861 | 31956 ft | 445 kts | 299° |
| 2026-05-05 12:19 | -22.59189 | -60.87513 | 31956 ft | 445 kts | 299° |
| 2026-05-05 12:20 | -22.56414 | -60.92261 | 31955 ft | 445 kts | 299° |
| 2026-05-05 12:20 | -22.53094 | -60.97922 | 31952 ft | 445 kts | 299° |
| 2026-05-05 12:21 | -22.49771 | -61.03581 | 31954 ft | 446 kts | 299° |
| 2026-05-05 12:21 | -22.46448 | -61.09231 | 31951 ft | 446 kts | 299° |
| 2026-05-05 12:22 | -22.43125 | -61.14887 | 31948 ft | 446 kts | 299° |
| 2026-05-05 12:22 | -22.39794 | -61.20539 | 31943 ft | 446 kts | 300° |
| 2026-05-05 12:23 | -22.36457 | -61.26188 | 31939 ft | 446 kts | 300° |
| 2026-05-05 12:23 | -22.33117 | -61.31849 | 31940 ft | 446 kts | 300° |
| 2026-05-05 12:24 | -22.29779 | -61.37501 | 31938 ft | 446 kts | 300° |
| 2026-05-05 12:24 | -22.26439 | -61.43150 | 31937 ft | 447 kts | 300° |
| 2026-05-05 12:25 | -22.23068 | -61.48837 | 31934 ft | 447 kts | 300° |
| 2026-05-05 12:25 | -22.19717 | -61.54486 | 31930 ft | 447 kts | 300° |
| 2026-05-05 12:26 | -22.16365 | -61.60134 | 31926 ft | 447 kts | 300° |
| 2026-05-05 12:26 | -22.13004 | -61.65788 | 31922 ft | 447 kts | 300° |
| 2026-05-05 12:27 | -22.09641 | -61.71433 | 31920 ft | 448 kts | 300° |
| 2026-05-05 12:27 | -22.06277 | -61.77085 | 31917 ft | 448 kts | 300° |
| 2026-05-05 12:28 | -22.02913 | -61.82731 | 31914 ft | 448 kts | 300° |
| 2026-05-05 12:28 | -21.99542 | -61.88386 | 31917 ft | 448 kts | 300° |
| 2026-05-05 12:29 | -21.96177 | -61.94028 | 31913 ft | 448 kts | 300° |
| 2026-05-05 12:29 | -21.92796 | -61.99672 | 31910 ft | 448 kts | 300° |
| 2026-05-05 12:30 | -21.89418 | -62.05311 | 31907 ft | 448 kts | 300° |
| 2026-05-05 12:30 | -21.86038 | -62.10947 | 31910 ft | 448 kts | 300° |
| 2026-05-05 12:31 | -21.82666 | -62.16585 | 31907 ft | 448 kts | 300° |
| 2026-05-05 12:31 | -21.79287 | -62.22220 | 31906 ft | 448 kts | 300° |
| 2026-05-05 12:32 | -21.75881 | -62.27881 | 31907 ft | 448 kts | 300° |
| 2026-05-05 12:32 | -21.72499 | -62.33503 | 31902 ft | 448 kts | 300° |
| 2026-05-05 12:33 | -21.69112 | -62.39122 | 31900 ft | 447 kts | 300° |
| 2026-05-05 12:33 | -21.65732 | -62.44731 | 31898 ft | 447 kts | 300° |
| 2026-05-05 12:34 | -21.62348 | -62.50332 | 31896 ft | 447 kts | 301° |
| 2026-05-05 12:34 | -21.58956 | -62.55927 | 31888 ft | 446 kts | 301° |
| 2026-05-05 12:35 | -21.55569 | -62.61519 | 31886 ft | 446 kts | 301° |
| 2026-05-05 12:35 | -21.52183 | -62.67116 | 31882 ft | 446 kts | 301° |
| 2026-05-05 12:36 | -21.48793 | -62.72698 | 31883 ft | 447 kts | 301° |
| 2026-05-05 12:36 | -21.45391 | -62.78285 | 31884 ft | 447 kts | 301° |
| 2026-05-05 12:37 | -21.41996 | -62.83865 | 31887 ft | 447 kts | 301° |
| 2026-05-05 12:37 | -21.38606 | -62.89446 | 31893 ft | 447 kts | 301° |
| 2026-05-05 12:38 | -21.35211 | -62.95027 | 31890 ft | 447 kts | 301° |
| 2026-05-05 12:38 | -21.31815 | -63.00607 | 31893 ft | 447 kts | 301° |
| 2026-05-05 12:39 | -21.28424 | -63.06205 | 31900 ft | 447 kts | 300° |
| 2026-05-05 12:39 | -21.25184 | -63.11714 | 31904 ft | 446 kts | 300° |
| 2026-05-05 12:40 | -21.21896 | -63.17352 | 31909 ft | 446 kts | 300° |
| 2026-05-05 12:40 | -21.18587 | -63.22986 | 31914 ft | 446 kts | 300° |
| 2026-05-05 12:41 | -21.15236 | -63.28631 | 31919 ft | 446 kts | 300° |
| 2026-05-05 12:41 | -21.11909 | -63.34248 | 31917 ft | 446 kts | 300° |
| 2026-05-05 12:42 | -21.08584 | -63.39861 | 31917 ft | 446 kts | 300° |
| 2026-05-05 12:42 | -21.05262 | -63.45471 | 31917 ft | 446 kts | 300° |
| 2026-05-05 12:43 | -21.01941 | -63.51074 | 31919 ft | 446 kts | 300° |
| 2026-05-05 12:43 | -20.98617 | -63.56675 | 31918 ft | 446 kts | 300° |
| 2026-05-05 12:44 | -20.95283 | -63.62275 | 31919 ft | 446 kts | 300° |
| 2026-05-05 12:44 | -20.91948 | -63.67863 | 31921 ft | 446 kts | 300° |
| 2026-05-05 12:45 | -20.88621 | -63.73456 | 31920 ft | 446 kts | 300° |
| 2026-05-05 12:45 | -20.85292 | -63.79049 | 31920 ft | 446 kts | 300° |
| 2026-05-05 12:46 | -20.81955 | -63.84642 | 31921 ft | 446 kts | 300° |
| 2026-05-05 12:46 | -20.78622 | -63.90223 | 31923 ft | 446 kts | 300° |
| 2026-05-05 12:47 | -20.75277 | -63.95804 | 31923 ft | 446 kts | 300° |
| 2026-05-05 12:47 | -20.71933 | -64.01377 | 31921 ft | 446 kts | 300° |
| 2026-05-05 12:48 | -20.68595 | -64.06948 | 31925 ft | 445 kts | 300° |
| 2026-05-05 12:48 | -20.65257 | -64.12528 | 31926 ft | 445 kts | 300° |
| 2026-05-05 12:49 | -20.61941 | -64.18113 | 31927 ft | 445 kts | 300° |
| 2026-05-05 12:49 | -20.58630 | -64.23706 | 31929 ft | 445 kts | 300° |
| 2026-05-05 12:50 | -20.55310 | -64.29293 | 31931 ft | 445 kts | 300° |
| 2026-05-05 12:50 | -20.52247 | -64.34440 | 31931 ft | 0 kts | 300° |
| 2026-05-05 12:51 | -20.55574 | -64.36504 | 31930 ft | 32000 kts | 300° |
| 2026-05-05 12:51 | -20.51736 | -64.37672 | 32298 ft | 442 kts | 298° |
| 2026-05-05 12:51 | -20.50699 | -64.39585 | 32584 ft | 441 kts | 297° |
| 2026-05-05 12:52 | -20.49175 | -64.42413 | 33010 ft | 439 kts | 297° |
| 2026-05-05 12:52 | -20.47668 | -64.45230 | 33441 ft | 437 kts | 297° |
| 2026-05-05 12:52 | -20.46072 | -64.48009 | 33260 ft | 439 kts | 301° |
| 2026-05-05 12:52 | -20.44320 | -64.50673 | 33013 ft | 440 kts | 303° |
| 2026-05-05 12:53 | -20.42498 | -64.53303 | 32763 ft | 441 kts | 304° |
| 2026-05-05 12:53 | -20.40680 | -64.55941 | 32514 ft | 442 kts | 303° |
| 2026-05-05 12:53 | -20.38917 | -64.58594 | 32261 ft | 443 kts | 302° |
| 2026-05-05 12:53 | -20.37186 | -64.61316 | 32043 ft | 444 kts | 301° |
| 2026-05-05 12:54 | -20.32127 | -64.69579 | 31999 ft | 445 kts | 301° |
| 2026-05-05 12:55 | -20.28732 | -64.75098 | 32010 ft | 445 kts | 301° |
| 2026-05-05 12:55 | -20.25319 | -64.80602 | 32035 ft | 446 kts | 301° |
| 2026-05-05 12:56 | -20.21896 | -64.86101 | 32050 ft | 445 kts | 301° |
| 2026-05-05 12:56 | -20.18461 | -64.91588 | 32062 ft | 445 kts | 302° |
| 2026-05-05 12:57 | -20.15031 | -64.97067 | 32072 ft | 445 kts | 302° |
| 2026-05-05 12:57 | -20.11663 | -65.02603 | 32089 ft | 445 kts | 300° |
| 2026-05-05 12:58 | -20.08408 | -65.08191 | 32102 ft | 445 kts | 300° |
| 2026-05-05 12:58 | -20.05119 | -65.13822 | 32111 ft | 445 kts | 300° |
| 2026-05-05 12:59 | -20.01816 | -65.19381 | 32117 ft | 445 kts | 301° |
| 2026-05-05 12:59 | -19.98494 | -65.24948 | 32123 ft | 445 kts | 301° |
| 2026-05-05 13:00 | -19.93532 | -65.33293 | 32133 ft | 445 kts | 301° |
| 2026-05-05 13:01 | -19.86928 | -65.44374 | 31762 ft | 444 kts | 301° |
| 2026-05-05 13:01 | -19.85267 | -65.47169 | 30859 ft | 449 kts | 301° |
| 2026-05-05 13:01 | -19.83391 | -65.49845 | 29920 ft | 455 kts | 311° |
| 2026-05-05 13:02 | -19.81080 | -65.52150 | 28613 ft | 459 kts | 320° |
| 2026-05-05 13:02 | -19.78378 | -65.54014 | 26588 ft | 469 kts | 330° |
| 2026-05-05 13:02 | -19.75495 | -65.55682 | 24670 ft | 475 kts | 330° |
| 2026-05-05 13:02 | -19.72586 | -65.57359 | 23097 ft | 472 kts | 330° |
| 2026-05-05 13:03 | -19.69736 | -65.59009 | 21598 ft | 464 kts | 330° |
| 2026-05-05 13:03 | -19.66929 | -65.60643 | 20322 ft | 454 kts | 330° |
| 2026-05-05 13:03 | -19.64237 | -65.62217 | 19894 ft | 427 kts | 330° |
| 2026-05-05 13:03 | -19.61721 | -65.63693 | 19760 ft | 398 kts | 330° |
| 2026-05-05 13:04 | -19.59379 | -65.65071 | 19637 ft | 372 kts | 329° |
| 2026-05-05 13:04 | -19.57147 | -65.66283 | 19523 ft | 350 kts | 340° |
| 2026-05-05 13:04 | -19.54826 | -65.66565 | 19408 ft | 330 kts | 9° |
| 2026-05-05 13:04 | -19.52788 | -65.65689 | 19296 ft | 312 kts | 39° |
| 2026-05-05 13:05 | -19.51501 | -65.63925 | 19189 ft | 300 kts | 71° |
| 2026-05-05 13:05 | -19.51088 | -65.61806 | 19073 ft | 290 kts | 84° |
| 2026-05-05 13:05 | -19.50915 | -65.59685 | 18851 ft | 287 kts | 87° |
| 2026-05-05 13:05 | -19.50791 | -65.57579 | 18596 ft | 285 kts | 87° |
| 2026-05-05 13:06 | -19.50652 | -65.55487 | 18327 ft | 284 kts | 86° |
| 2026-05-05 13:06 | -19.50480 | -65.53406 | 18049 ft | 283 kts | 85° |
| 2026-05-05 13:06 | -19.50279 | -65.51339 | 17761 ft | 281 kts | 84° |
| 2026-05-05 13:06 | -19.50056 | -65.49285 | 17479 ft | 280 kts | 84° |
| 2026-05-05 13:07 | -19.49771 | -65.47251 | 17251 ft | 277 kts | 73° |
| 2026-05-05 13:07 | -19.48838 | -65.45513 | 17185 ft | 272 kts | 45° |
| 2026-05-05 13:07 | -19.47278 | -65.44377 | 17149 ft | 266 kts | 21° |
| 2026-05-05 13:07 | -19.45491 | -65.43999 | 17123 ft | 265 kts | 358° |
| 2026-05-05 13:08 | -19.43726 | -65.44378 | 17039 ft | 262 kts | 335° |
| 2026-05-05 13:08 | -19.42242 | -65.45478 | 16967 ft | 259 kts | 312° |
| 2026-05-05 13:08 | -19.41311 | -65.47114 | 16961 ft | 260 kts | 288° |
| 2026-05-05 13:08 | -19.41051 | -65.49003 | 17011 ft | 261 kts | 265° |
| 2026-05-05 13:09 | -19.41491 | -65.50794 | 16996 ft | 244 kts | 243° |
| 2026-05-05 13:09 | -19.42372 | -65.52273 | 17009 ft | 233 kts | 237° |
| 2026-05-05 13:09 | -19.43245 | -65.53709 | 16842 ft | 232 kts | 238° |
| 2026-05-05 13:09 | -19.44097 | -65.55151 | 16481 ft | 229 kts | 238° |
| 2026-05-05 13:10 | -19.44934 | -65.56572 | 16157 ft | 226 kts | 238° |
| 2026-05-05 13:10 | -19.45765 | -65.57985 | 15844 ft | 225 kts | 237° |
| 2026-05-05 13:10 | -19.46592 | -65.59390 | 15524 ft | 224 kts | 238° |
| 2026-05-05 13:10 | -19.47416 | -65.60788 | 15211 ft | 223 kts | 238° |
| 2026-05-05 13:11 | -19.48237 | -65.62181 | 14899 ft | 222 kts | 237° |
| 2026-05-05 13:11 | -19.49044 | -65.63569 | 14642 ft | 221 kts | 238° |
| 2026-05-05 13:11 | -19.49791 | -65.64986 | 14339 ft | 219 kts | 243° |
| 2026-05-05 13:11 | -19.50469 | -65.66432 | 14123 ft | 218 kts | 242° |
| 2026-05-05 13:12 | -19.51239 | -65.67790 | 13979 ft | 210 kts | 234° |
| 2026-05-05 13:12 | -19.52143 | -65.69043 | 13615 ft | 218 kts | 232° |
| 2026-05-05 13:12 | -19.53001 | -65.70390 | 13213 ft | 221 kts | 237° |
| 2026-05-05 13:12 | -19.53871 | -65.71688 | 12725 ft | 211 kts | 236° |
| 2026-05-05 13:13 | -19.54592 | -65.72798 | 12758 ft | 159 kts | 238° |
| 2026-05-05 13:13 | -19.54899 | -65.73319 | 12788 ft | 33 kts | 237° |
| 2026-05-05 13:13 | -19.54992 | -65.73462 | 12799 ft | 10 kts | 236° |
| 2026-05-05 13:13 | -19.55019 | -65.73505 | 12802 ft | 2 kts | 165° |
| 2026-05-05 13:14 | -19.55011 | -65.73469 | 12798 ft | 9 kts | 59° |
| 2026-05-05 13:14 | -19.54964 | -65.73394 | 12796 ft | 15 kts | 52° |
| 2026-05-05 13:14 | -19.54891 | -65.73283 | 12787 ft | 21 kts | 55° |
| 2026-05-05 13:14 | -19.54815 | -65.73166 | 12781 ft | 20 kts | 56° |
| 2026-05-05 13:15 | -19.54754 | -65.73066 | 12776 ft | 14 kts | 70° |
| 2026-05-05 13:15 | -19.54774 | -65.73044 | 12773 ft | 3 kts | 194° |
| 2026-05-05 13:15 | -19.54806 | -65.73059 | 12773 ft | 8 kts | 203° |
| 2026-05-05 13:15 | -19.54837 | -65.73075 | 12774 ft | 0 kts | 210° |